As Olivia — DYQC — position and weather

sailwx.info

Track history (hours):
 
Tides and Currents Weather Stations Pressure Air Temp Water Temp Dewpoint Dewpoint Depression Visibility Wind Speed Wind Dir Waves Ship Positions

As Olivia

Last reported at 2017-Apr-25 06:30 UTC. Time now 2017-Apr-25 06:30 UTC.
Position N 51°24' E 002°37'.

Length 146 m; draft 6.3 m.

Type: Tanker. MMSI: 548767000.

Date/timePositionNaut miles runAvg speedWind from/ knotsBaromVisibWave heightAir tempDewpointWater temp
2017-Apr-25 06:30N 51°24' E 002°37'4 7.6
2017-Apr-25 06:00N 51°22' E 002°31'510.9
2017-Apr-25 05:30N 51°20' E 002°23'611.3
2017-Apr-25 05:00N 51°18' E 002°15'612.0
2017-Apr-25 04:30N 51°20' E 002°05'612.9
2017-Apr-25 04:00N 51°24' E 001°58'611.5
2017-Apr-25 03:30N 51°29' E 002°03'612.8
2017-Apr-25 03:00N 51°34' E 002°10'612.8
2017-Apr-25 02:30N 51°39' E 002°17'44 1.5
2017-Apr-23 22:08N 52°09' E 003°08'511.1
2017-Apr-23 21:41N 52°05' E 003°04'2511.3
2017-Apr-23 19:29N 51°46' E 002°37'4 9.3
2017-Apr-23 19:01N 51°43' E 002°32'5 9.1
2017-Apr-23 18:31N 51°39' E 002°27'4 8.9
2017-Apr-23 18:00N 51°36' E 002°23'4 8.7
2017-Apr-23 17:31N 51°33' E 002°18'4 8.9
2017-Apr-23 17:00N 51°29' E 002°13'5 9.9
2017-Apr-23 16:30N 51°25' E 002°08'510.1
2017-Apr-23 16:00N 51°21' E 002°13'713.4
2017-Apr-23 15:30N 51°22' E 002°24'714.0
2017-Apr-23 15:01N 51°23' E 002°35'1312.8
2017-Apr-23 14:00N 51°23' E 002°55'713.5
2017-Apr-23 13:30N 51°24' E 003°06'713.8
2017-Apr-23 13:00N 51°25' E 003°17'713.9
2017-Apr-23 12:30N 51°25' E 003°28'510.4
2017-Apr-23 12:00N 51°26' E 003°37'612.3
2017-Apr-23 11:30N 51°22' E 003°45'611.2
2017-Apr-23 10:56N 51°22' E 003°55'510.8
2017-Apr-23 10:29N 51°26' E 003°59'510.0
2017-Apr-23 10:00N 51°22' E 004°04'510.9
2017-Apr-23 09:30N 51°24' E 004°12'510.4
2017-Apr-23 09:00N 51°19' E 004°16'3 6.6
2017-Apr-23 08:31N 51°17' E 004°20'0 0.0
2017-Apr-23 08:01N 51°17' E 004°20'0 0.6
2017-Apr-23 07:31N 51°16' E 004°20'0 0.7
2017-Apr-23 06:58N 51°17' E 004°20'0 0.0
2017-Apr-23 06:28N 51°17' E 004°20'0 0.0
2017-Apr-23 05:52N 51°17' E 004°20'0 0.0
2017-Apr-23 05:28N 51°17' E 004°20'0 0.0
2017-Apr-23 04:58N 51°17' E 004°20'0 0.0
2017-Apr-23 04:28N 51°17' E 004°20'0 0.0
2017-Apr-23 03:55N 51°17' E 004°20'0 0.0
2017-Apr-23 03:28N 51°17' E 004°20'0 0.0
2017-Apr-23 02:58N 51°17' E 004°20'0 0.0
2017-Apr-23 02:28N 51°17' E 004°20'0 0.0
2017-Apr-23 01:58N 51°17' E 004°20'0 0.0
2017-Apr-23 01:16N 51°17' E 004°20'0 0.0
2017-Apr-23 00:58N 51°17' E 004°20'0 0.0
2017-Apr-23 00:28N 51°17' E 004°20'0 0.0
2017-Apr-22 23:58N 51°17' E 004°20'0 0.0
2017-Apr-22 23:25N 51°17' E 004°20'0 0.0
2017-Apr-22 22:58N 51°17' E 004°20'0 0.0
2017-Apr-22 22:22N 51°17' E 004°20'0 0.0
2017-Apr-22 21:58N 51°17' E 004°20'0 0.0
2017-Apr-22 21:28N 51°17' E 004°20'0 0.0
2017-Apr-22 20:52N 51°17' E 004°20'0 0.0
2017-Apr-22 20:28N 51°17' E 004°20'0 0.0
2017-Apr-22 19:58N 51°17' E 004°20'0 0.0
2017-Apr-22 19:22N 51°17' E 004°20'0 0.0
2017-Apr-22 18:58N 51°17' E 004°20'0 0.0
2017-Apr-22 18:16N 51°17' E 004°20'0 0.0
2017-Apr-22 17:58N 51°17' E 004°20'0 0.0
2017-Apr-22 17:22N 51°17' E 004°20'0 0.0
2017-Apr-22 16:58N 51°17' E 004°20'0 0.0
2017-Apr-22 16:10N 51°17' E 004°20'0 0.0
2017-Apr-22 15:52N 51°17' E 004°20'0 0.0
2017-Apr-22 15:28N 51°17' E 004°20'0 0.0
2017-Apr-22 14:52N 51°17' E 004°20'0 0.0
2017-Apr-22 14:28N 51°17' E 004°20'0 0.0
2017-Apr-22 13:28N 51°17' E 004°20'0 0.0
2017-Apr-22 12:58N 51°17' E 004°20'0 0.0
2017-Apr-22 12:19N 51°17' E 004°20'0 0.0
2017-Apr-22 11:58N 51°17' E 004°20'0 0.0
2017-Apr-22 11:22N 51°17' E 004°20'0 0.0
2017-Apr-22 10:58N 51°17' E 004°20'0 0.0
2017-Apr-22 10:28N 51°17' E 004°20'0 0.0
2017-Apr-22 09:58N 51°17' E 004°20'0 0.0
2017-Apr-22 09:04N 51°17' E 004°20'0 0.0
2017-Apr-22 08:58N 51°17' E 004°20'0 0.0
2017-Apr-22 08:28N 51°17' E 004°20'0 0.0
2017-Apr-22 07:58N 51°17' E 004°20'0 0.0
2017-Apr-22 07:10N 51°17' E 004°20'0 0.0
2017-Apr-22 06:58N 51°17' E 004°20'0 0.0
2017-Apr-22 06:22N 51°17' E 004°20'0 0.0
2017-Apr-22 05:52N 51°17' E 004°20'0 0.0
2017-Apr-22 05:28N 51°17' E 004°20'0 0.0
2017-Apr-22 04:58N 51°17' E 004°20'0 0.0
2017-Apr-22 04:28N 51°17' E 004°20'0 0.0
2017-Apr-22 03:58N 51°17' E 004°20'0 0.0
2017-Apr-22 03:22N 51°17' E 004°20'0 0.0
2017-Apr-22 02:58N 51°17' E 004°20'0 0.0
2017-Apr-22 02:28N 51°17' E 004°20'0 0.0
2017-Apr-22 01:52N 51°17' E 004°20'0 0.0
2017-Apr-22 01:28N 51°17' E 004°20'0 0.0
2017-Apr-22 00:55N 51°17' E 004°20'0 0.0
2017-Apr-22 00:28N 51°17' E 004°20'0 0.0
2017-Apr-21 23:58N 51°17' E 004°20'0 0.0
2017-Apr-21 23:28N 51°17' E 004°20'0 0.0
2017-Apr-21 22:58N 51°17' E 004°20'0 0.0
2017-Apr-21 22:28N 51°17' E 004°20'0 0.0
2017-Apr-21 21:58N 51°17' E 004°20'0 0.0
2017-Apr-21 21:28N 51°17' E 004°20'0 0.0
2017-Apr-21 20:58N 51°17' E 004°20'0 0.0
2017-Apr-21 20:25N 51°17' E 004°20'0 0.0
2017-Apr-21 19:58N 51°17' E 004°20'0 0.0
2017-Apr-21 19:28N 51°17' E 004°20'0 0.0
2017-Apr-21 18:58N 51°17' E 004°20'0 0.0
2017-Apr-21 18:28N 51°17' E 004°20'0 0.0
2017-Apr-21 17:58N 51°17' E 004°20'0 0.0
2017-Apr-21 17:28N 51°17' E 004°20'0 0.0
2017-Apr-21 16:55N 51°17' E 004°20'0 0.0
2017-Apr-21 16:22N 51°17' E 004°20'0 0.0
2017-Apr-21 15:58N 51°17' E 004°20'0 0.0
2017-Apr-21 15:28N 51°17' E 004°20'0 0.0
2017-Apr-21 14:55N 51°17' E 004°20'0 0.0
2017-Apr-21 14:28N 51°17' E 004°20'0 0.0
2017-Apr-21 13:28N 51°17' E 004°20'0 0.0
2017-Apr-21 12:46N 51°17' E 004°20'0 0.0
2017-Apr-21 12:28N 51°17' E 004°20'0 0.0
2017-Apr-21 11:49N 51°17' E 004°20'0 0.0
2017-Apr-21 11:28N 51°17' E 004°20'0 0.0
2017-Apr-21 10:58N 51°17' E 004°20'0 0.0
2017-Apr-21 10:28N 51°17' E 004°20'0 0.0
2017-Apr-21 09:55N 51°17' E 004°20'0 0.0
2017-Apr-21 09:28N 51°17' E 004°20'0 0.2
2017-Apr-21 09:00N 51°17' E 004°20'2 5.0
2017-Apr-21 08:30N 51°19' E 004°19'0 0.0
2017-Apr-20 07:35N 51°19' E 004°18'0 0.0
2017-Apr-20 07:30N 51°19' E 004°18'1 2.6
2017-Apr-20 07:00N 51°18' E 004°20'1 2.5
2017-Apr-20 06:31N 51°17' E 004°20'0 0.0
2017-Apr-20 06:01N 51°17' E 004°20'0 0.4
2017-Apr-20 05:30N 51°17' E 004°20'3 5.1
2017-Apr-20 05:00N 51°18' E 004°16'1 2.6
2017-Apr-20 04:30N 51°17' E 004°15'0 0.1
2017-Apr-20 04:00N 51°17' E 004°15'1 1.5
2017-Apr-20 03:30N 51°17' E 004°14'0 0.0
2017-Apr-20 00:41N 51°17' E 004°14'0 0.0
2017-Apr-19 19:41N 51°17' E 004°14'0 0.0
2017-Apr-19 19:17N 51°17' E 004°14'0 0.0
2017-Apr-19 16:53N 51°17' E 004°14'0 0.0
2017-Apr-19 16:29N 51°17' E 004°14'0 0.0
2017-Apr-19 15:56N 51°17' E 004°14'0 0.0
2017-Apr-19 15:29N 51°17' E 004°14'0 0.0
2017-Apr-19 13:05N 51°17' E 004°14'0 0.0
2017-Apr-18 13:34N 51°17' E 004°14'0 0.1
2017-Apr-18 13:30N 51°17' E 004°14'0 0.8
2017-Apr-18 13:00N 51°17' E 004°14'2 4.3
2017-Apr-18 12:31N 51°16' E 004°17'0 0.0
2017-Apr-18 12:01N 51°16' E 004°17'0 0.6
2017-Apr-18 11:30N 51°16' E 004°17'2 3.9
2017-Apr-18 11:00N 51°18' E 004°19'4 7.7
2017-Apr-18 10:30N 51°21' E 004°15'4 8.0
2017-Apr-18 10:00N 51°23' E 004°10'5 8.1
2017-Apr-18 09:21N 51°24' E 004°02'3 5.2
2017-Apr-18 08:48N 51°24' E 003°58'3 9.8
2017-Apr-18 08:27N 51°22' E 003°54'510.1
2017-Apr-18 08:00N 51°21' E 003°47'610.5
2017-Apr-18 07:29N 51°25' E 003°41'510.2
2017-Apr-18 06:59N 51°25' E 003°34'510.5
2017-Apr-18 06:30N 51°25' E 003°26'713.3
2017-Apr-18 06:00N 51°25' E 003°15'713.5
2017-Apr-18 05:30N 51°24' E 003°04'713.4
2017-Apr-18 05:00N 51°22' E 002°54'713.5
2017-Apr-18 04:30N 51°22' E 002°43'4 7.7
2017-Apr-18 04:00N 51°22' E 002°37'612.8
2017-Apr-18 03:30N 51°21' E 002°27'713.3
2017-Apr-18 03:01N 51°18' E 002°17'713.1
2017-Apr-18 02:31N 51°15' E 002°08'612.9
2017-Apr-18 02:00N 51°12' E 001°59'612.8
2017-Apr-18 01:30N 51°09' E 001°50'612.5
2017-Apr-18 01:00N 51°05' E 001°42'611.9
2017-Apr-18 00:30N 51°01' E 001°35'611.4
2017-Apr-18 00:00N 50°57' E 001°30'5310.7
2017-Apr-17 19:00N 50°23' E 000°24'1211.5
2017-Apr-17 17:59N 50°19' E 000°07'511.6
2017-Apr-17 17:30N 50°18' W 000°01'611.6
2017-Apr-17 17:00N 50°16' W 000°10'611.6
2017-Apr-17 16:30N 50°15' W 000°19'611.6
2017-Apr-17 15:57N 50°13' W 000°29'511.8
2017-Apr-17 15:30N 50°12' W 000°37'8714.3
2017-Apr-17 09:23N 49°49' W 002°48'1913.8
2017-Apr-17 08:01N 49°42' W 003°15'8212.8
2017-Apr-17 01:34N 48°60' W 005°03'111.8
2017-Apr-17 01:30N 48°59' W 005°04'611.8
2017-Apr-17 00:59N 48°56' W 005°12'611.7
2017-Apr-17 00:30N 48°53' W 005°20'611.8
2017-Apr-17 00:00N 48°50' W 005°27'611.9
2017-Apr-16 23:30N 48°47' W 005°35'911.6
2017-Apr-16 22:44N 48°40' W 005°43'412.0
2017-Apr-16 22:26N 48°37' W 005°46'611.9
2017-Apr-16 21:56N 48°31' W 005°50'  
Track history (hours):
 
Tides and Currents Weather Stations Pressure Air Temp Water Temp Dewpoint Dewpoint Depression Visibility Wind Speed Wind Dir Waves Ship Positions

As Olivia

Last reported at 2017-Apr-25 06:30 UTC. Time now 2017-Apr-25 06:30 UTC.
Position N 51°24' E 002°37'.

Length 146 m; draft 6.3 m.

Type: Tanker. MMSI: 548767000.

Date/timePositionNaut miles runAvg speedWind from/ knotsBaromVisibWave heightAir tempDewpointWater temp
2017-Apr-25 06:30N 51°24' E 002°37'4 7.6
2017-Apr-25 06:00N 51°22' E 002°31'510.9
2017-Apr-25 05:30N 51°20' E 002°23'611.3
2017-Apr-25 05:00N 51°18' E 002°15'612.0
2017-Apr-25 04:30N 51°20' E 002°05'612.9
2017-Apr-25 04:00N 51°24' E 001°58'611.5
2017-Apr-25 03:30N 51°29' E 002°03'612.8
2017-Apr-25 03:00N 51°34' E 002°10'612.8
2017-Apr-25 02:30N 51°39' E 002°17'44 1.5
2017-Apr-23 22:08N 52°09' E 003°08'511.1
2017-Apr-23 21:41N 52°05' E 003°04'2511.3
2017-Apr-23 19:29N 51°46' E 002°37'4 9.3
2017-Apr-23 19:01N 51°43' E 002°32'5 9.1
2017-Apr-23 18:31N 51°39' E 002°27'4 8.9
2017-Apr-23 18:00N 51°36' E 002°23'4 8.7
2017-Apr-23 17:31N 51°33' E 002°18'4 8.9
2017-Apr-23 17:00N 51°29' E 002°13'5 9.9
2017-Apr-23 16:30N 51°25' E 002°08'510.1
2017-Apr-23 16:00N 51°21' E 002°13'713.4
2017-Apr-23 15:30N 51°22' E 002°24'714.0
2017-Apr-23 15:01N 51°23' E 002°35'1312.8
2017-Apr-23 14:00N 51°23' E 002°55'713.5
2017-Apr-23 13:30N 51°24' E 003°06'713.8
2017-Apr-23 13:00N 51°25' E 003°17'713.9
2017-Apr-23 12:30N 51°25' E 003°28'510.4
2017-Apr-23 12:00N 51°26' E 003°37'612.3
2017-Apr-23 11:30N 51°22' E 003°45'611.2
2017-Apr-23 10:56N 51°22' E 003°55'510.8
2017-Apr-23 10:29N 51°26' E 003°59'510.0
2017-Apr-23 10:00N 51°22' E 004°04'510.9
2017-Apr-23 09:30N 51°24' E 004°12'510.4
2017-Apr-23 09:00N 51°19' E 004°16'3 6.6
2017-Apr-23 08:31N 51°17' E 004°20'0 0.0
2017-Apr-23 08:01N 51°17' E 004°20'0 0.6
2017-Apr-23 07:31N 51°16' E 004°20'0 0.7
2017-Apr-23 06:58N 51°17' E 004°20'0 0.0
2017-Apr-23 06:28N 51°17' E 004°20'0 0.0
2017-Apr-23 05:52N 51°17' E 004°20'0 0.0
2017-Apr-23 05:28N 51°17' E 004°20'0 0.0
2017-Apr-23 04:58N 51°17' E 004°20'0 0.0
2017-Apr-23 04:28N 51°17' E 004°20'0 0.0
2017-Apr-23 03:55N 51°17' E 004°20'0 0.0
2017-Apr-23 03:28N 51°17' E 004°20'0 0.0
2017-Apr-23 02:58N 51°17' E 004°20'0 0.0
2017-Apr-23 02:28N 51°17' E 004°20'0 0.0
2017-Apr-23 01:58N 51°17' E 004°20'0 0.0
2017-Apr-23 01:16N 51°17' E 004°20'0 0.0
2017-Apr-23 00:58N 51°17' E 004°20'0 0.0
2017-Apr-23 00:28N 51°17' E 004°20'0 0.0
2017-Apr-22 23:58N 51°17' E 004°20'0 0.0
2017-Apr-22 23:25N 51°17' E 004°20'0 0.0
2017-Apr-22 22:58N 51°17' E 004°20'0 0.0
2017-Apr-22 22:22N 51°17' E 004°20'0 0.0
2017-Apr-22 21:58N 51°17' E 004°20'0 0.0
2017-Apr-22 21:28N 51°17' E 004°20'0 0.0
2017-Apr-22 20:52N 51°17' E 004°20'0 0.0
2017-Apr-22 20:28N 51°17' E 004°20'0 0.0
2017-Apr-22 19:58N 51°17' E 004°20'0 0.0
2017-Apr-22 19:22N 51°17' E 004°20'0 0.0
2017-Apr-22 18:58N 51°17' E 004°20'0 0.0
2017-Apr-22 18:16N 51°17' E 004°20'0 0.0
2017-Apr-22 17:58N 51°17' E 004°20'0 0.0
2017-Apr-22 17:22N 51°17' E 004°20'0 0.0
2017-Apr-22 16:58N 51°17' E 004°20'0 0.0
2017-Apr-22 16:10N 51°17' E 004°20'0 0.0
2017-Apr-22 15:52N 51°17' E 004°20'0 0.0
2017-Apr-22 15:28N 51°17' E 004°20'0 0.0
2017-Apr-22 14:52N 51°17' E 004°20'0 0.0
2017-Apr-22 14:28N 51°17' E 004°20'0 0.0
2017-Apr-22 13:28N 51°17' E 004°20'0 0.0
2017-Apr-22 12:58N 51°17' E 004°20'0 0.0
2017-Apr-22 12:19N 51°17' E 004°20'0 0.0
2017-Apr-22 11:58N 51°17' E 004°20'0 0.0
2017-Apr-22 11:22N 51°17' E 004°20'0 0.0
2017-Apr-22 10:58N 51°17' E 004°20'0 0.0
2017-Apr-22 10:28N 51°17' E 004°20'0 0.0
2017-Apr-22 09:58N 51°17' E 004°20'0 0.0
2017-Apr-22 09:04N 51°17' E 004°20'0 0.0
2017-Apr-22 08:58N 51°17' E 004°20'0 0.0
2017-Apr-22 08:28N 51°17' E 004°20'0 0.0
2017-Apr-22 07:58N 51°17' E 004°20'0 0.0
2017-Apr-22 07:10N 51°17' E 004°20'0 0.0
2017-Apr-22 06:58N 51°17' E 004°20'0 0.0
2017-Apr-22 06:22N 51°17' E 004°20'0 0.0
2017-Apr-22 05:52N 51°17' E 004°20'0 0.0
2017-Apr-22 05:28N 51°17' E 004°20'0 0.0
2017-Apr-22 04:58N 51°17' E 004°20'0 0.0
2017-Apr-22 04:28N 51°17' E 004°20'0 0.0
2017-Apr-22 03:58N 51°17' E 004°20'0 0.0
2017-Apr-22 03:22N 51°17' E 004°20'0 0.0
2017-Apr-22 02:58N 51°17' E 004°20'0 0.0
2017-Apr-22 02:28N 51°17' E 004°20'0 0.0
2017-Apr-22 01:52N 51°17' E 004°20'0 0.0
2017-Apr-22 01:28N 51°17' E 004°20'0 0.0
2017-Apr-22 00:55N 51°17' E 004°20'0 0.0
2017-Apr-22 00:28N 51°17' E 004°20'0 0.0
2017-Apr-21 23:58N 51°17' E 004°20'0 0.0
2017-Apr-21 23:28N 51°17' E 004°20'0 0.0
2017-Apr-21 22:58N 51°17' E 004°20'0 0.0
2017-Apr-21 22:28N 51°17' E 004°20'0 0.0
2017-Apr-21 21:58N 51°17' E 004°20'0 0.0
2017-Apr-21 21:28N 51°17' E 004°20'0 0.0
2017-Apr-21 20:58N 51°17' E 004°20'0 0.0
2017-Apr-21 20:25N 51°17' E 004°20'0 0.0
2017-Apr-21 19:58N 51°17' E 004°20'0 0.0
2017-Apr-21 19:28N 51°17' E 004°20'0 0.0
2017-Apr-21 18:58N 51°17' E 004°20'0 0.0
2017-Apr-21 18:28N 51°17' E 004°20'0 0.0
2017-Apr-21 17:58N 51°17' E 004°20'0 0.0
2017-Apr-21 17:28N 51°17' E 004°20'0 0.0
2017-Apr-21 16:55N 51°17' E 004°20'0 0.0
2017-Apr-21 16:22N 51°17' E 004°20'0 0.0
2017-Apr-21 15:58N 51°17' E 004°20'0 0.0
2017-Apr-21 15:28N 51°17' E 004°20'0 0.0
2017-Apr-21 14:55N 51°17' E 004°20'0 0.0
2017-Apr-21 14:28N 51°17' E 004°20'0 0.0
2017-Apr-21 13:28N 51°17' E 004°20'0 0.0
2017-Apr-21 12:46N 51°17' E 004°20'0 0.0
2017-Apr-21 12:28N 51°17' E 004°20'0 0.0
2017-Apr-21 11:49N 51°17' E 004°20'0 0.0
2017-Apr-21 11:28N 51°17' E 004°20'0 0.0
2017-Apr-21 10:58N 51°17' E 004°20'0 0.0
2017-Apr-21 10:28N 51°17' E 004°20'0 0.0
2017-Apr-21 09:55N 51°17' E 004°20'0 0.0
2017-Apr-21 09:28N 51°17' E 004°20'0 0.2
2017-Apr-21 09:00N 51°17' E 004°20'2 5.0
2017-Apr-21 08:30N 51°19' E 004°19'0 0.0
2017-Apr-20 07:35N 51°19' E 004°18'0 0.0
2017-Apr-20 07:30N 51°19' E 004°18'1 2.6
2017-Apr-20 07:00N 51°18' E 004°20'1 2.5
2017-Apr-20 06:31N 51°17' E 004°20'0 0.0
2017-Apr-20 06:01N 51°17' E 004°20'0 0.4
2017-Apr-20 05:30N 51°17' E 004°20'3 5.1
2017-Apr-20 05:00N 51°18' E 004°16'1 2.6
2017-Apr-20 04:30N 51°17' E 004°15'0 0.1
2017-Apr-20 04:00N 51°17' E 004°15'1 1.5
2017-Apr-20 03:30N 51°17' E 004°14'0 0.0
2017-Apr-20 00:41N 51°17' E 004°14'0 0.0
2017-Apr-19 19:41N 51°17' E 004°14'0 0.0
2017-Apr-19 19:17N 51°17' E 004°14'0 0.0
2017-Apr-19 16:53N 51°17' E 004°14'0 0.0
2017-Apr-19 16:29N 51°17' E 004°14'0 0.0
2017-Apr-19 15:56N 51°17' E 004°14'0 0.0
2017-Apr-19 15:29N 51°17' E 004°14'0 0.0
2017-Apr-19 13:05N 51°17' E 004°14'0 0.0
2017-Apr-18 13:34N 51°17' E 004°14'0 0.1
2017-Apr-18 13:30N 51°17' E 004°14'0 0.8
2017-Apr-18 13:00N 51°17' E 004°14'2 4.3
2017-Apr-18 12:31N 51°16' E 004°17'0 0.0
2017-Apr-18 12:01N 51°16' E 004°17'0 0.6
2017-Apr-18 11:30N 51°16' E 004°17'2 3.9
2017-Apr-18 11:00N 51°18' E 004°19'4 7.7
2017-Apr-18 10:30N 51°21' E 004°15'4 8.0
2017-Apr-18 10:00N 51°23' E 004°10'5 8.1
2017-Apr-18 09:21N 51°24' E 004°02'3 5.2
2017-Apr-18 08:48N 51°24' E 003°58'3 9.8
2017-Apr-18 08:27N 51°22' E 003°54'510.1
2017-Apr-18 08:00N 51°21' E 003°47'610.5
2017-Apr-18 07:29N 51°25' E 003°41'510.2
2017-Apr-18 06:59N 51°25' E 003°34'510.5
2017-Apr-18 06:30N 51°25' E 003°26'713.3
2017-Apr-18 06:00N 51°25' E 003°15'713.5
2017-Apr-18 05:30N 51°24' E 003°04'713.4
2017-Apr-18 05:00N 51°22' E 002°54'713.5
2017-Apr-18 04:30N 51°22' E 002°43'4 7.7
2017-Apr-18 04:00N 51°22' E 002°37'612.8
2017-Apr-18 03:30N 51°21' E 002°27'713.3
2017-Apr-18 03:01N 51°18' E 002°17'713.1
2017-Apr-18 02:31N 51°15' E 002°08'612.9
2017-Apr-18 02:00N 51°12' E 001°59'612.8
2017-Apr-18 01:30N 51°09' E 001°50'612.5
2017-Apr-18 01:00N 51°05' E 001°42'611.9
2017-Apr-18 00:30N 51°01' E 001°35'611.4
2017-Apr-18 00:00N 50°57' E 001°30'5310.7
2017-Apr-17 19:00N 50°23' E 000°24'1211.5
2017-Apr-17 17:59N 50°19' E 000°07'511.6
2017-Apr-17 17:30N 50°18' W 000°01'611.6
2017-Apr-17 17:00N 50°16' W 000°10'611.6
2017-Apr-17 16:30N 50°15' W 000°19'611.6
2017-Apr-17 15:57N 50°13' W 000°29'511.8
2017-Apr-17 15:30N 50°12' W 000°37'8714.3
2017-Apr-17 09:23N 49°49' W 002°48'1913.8
2017-Apr-17 08:01N 49°42' W 003°15'8212.8
2017-Apr-17 01:34N 48°60' W 005°03'111.8
2017-Apr-17 01:30N 48°59' W 005°04'611.8
2017-Apr-17 00:59N 48°56' W 005°12'611.7
2017-Apr-17 00:30N 48°53' W 005°20'611.8
2017-Apr-17 00:00N 48°50' W 005°27'611.9
2017-Apr-16 23:30N 48°47' W 005°35'911.6
2017-Apr-16 22:44N 48°40' W 005°43'412.0
2017-Apr-16 22:26N 48°37' W 005°46'611.9
2017-Apr-16 21:56N 48°31' W 005°50'  

Dump ship's entire track history